General Aviation Weather

Text Reports

Enter one or more of the following location identifiers separated by a space:

Zip Code, Four-Character ICAO or Three-Character IATA airport codes.

METAR - Aviation Routine Weather Report
KIZG - Fryeburg, Maine
Updated at 6:54 AM GMT on April 19, 2014 (2:54 AM EDT):
METAR KIZG 190654Z AUTO 30003KT 10SM SCT120 M02/M04 A3015 RMK AO2 SLP213 T10221039
TAF - Terminal Area Forecast
KIZG - Fryeburg, Maine
Updated at 6:54 AM GMT on April 19, 2014 (2:54 AM EDT):
No TAF is currently available for this location.
Decoded:
No decoded TAF is available.
PIREP - Pilot Weather Report
KIZG - Fryeburg, Maine
Updated at 6:54 AM GMT on April 19, 2014 (2:54 AM EDT):
No PIREP is currently available for this location.
AIRMET - Airmens Meteorological Information
KIZG - Fryeburg, Maine
Updated at 6:54 AM GMT on April 19, 2014 (2:54 AM EDT):
No AIRMET is currently available for this location.
SIGMET - Significant Meteorological Information
KIZG - Fryeburg, Maine
Updated at 6:54 AM GMT on April 19, 2014 (2:54 AM EDT):
No SIGMET is currently available for this location.
NOTAM - Notice to Airmen
KIZG - Fryeburg, Maine
Updated at 6:54 AM GMT on April 19, 2014 (2:54 AM EDT):
No NOTAM is currently available for this location.
Forecast Area
KIZG - Fryeburg, Maine
Updated at 6:54 AM GMT on April 19, 2014 (2:54 AM EDT):
No NOTAM is currently available for this location.
Aviation Weather Maps